Castor, Canada
Current Conditions -  °F | °C
As of 12:00 PM on Friday 24 Oct 2014 (Local Time) from CYQF Reporting Station
Broken Clouds Broken Clouds  
Wind Chill: 37°   Ceiling: 9000
Heat Index: 43°   Visibility: 15mi
Dew Point: 30°   Wind: 10mph
Humidity: 61%   Direction: 240°WSW
Pressure: 29.91"   Gusts: NA
Location:  52.22°N, 111.9°W
Report Text: CYQF 241800Z 24009KT 15SM BKN090 BKN200 06/M01 A2991 RMK AC5CI1 SLP151
Loading
Personal Weather Stations






























Interactive Weather Map
Tropical Storm Tracking
New forecast layout! Learn more

10-Day Weather Forecast

Advertisements
Track Severe Weather on mobile